Time;durP1;ratioP1;P1;durP2;ratioP2;P2;SDS_P1;SDS_P2;PMS_P1;PMS_P2;Temp;Humidity;BMP_temperature;BMP_pressure;BME280_temperature;BME280_humidity;BME280_pressure;Samples;Min_cycle;Max_cycle;Signal;HPM_P1;HPM_P2
2022/04/15 00:00:41;;;;;;;13.25;11.90;;;;;;;17.68;56.49;95707.78;5073816;28;20381;-65
2022/04/15 00:03:07;;;;;;;14.75;12.98;;;;;;;18.30;56.00;95797.44;5073736;28;20385;-66
2022/04/15 00:05:45;;;;;;;15.13;13.60;;;;;;;17.00;58.68;95702.06;5073641;28;20028;-66
2022/04/15 00:08:12;;;;;;;18.30;16.55;;;;;;;17.25;59.71;95713.66;5073603;28;20115;-65
2022/04/15 00:10:41;;;;;;;23.80;20.63;;;;;;;17.85;60.33;95786.75;5073266;28;20021;-66
2022/04/15 00:13:11;;;;;;;37.22;28.02;;;;;;;16.94;63.79;95784.00;5073607;28;20021;-65
2022/04/15 00:15:38;;;;;;;41.72;31.55;;;;;;;16.48;64.52;95710.53;5073940;28;20062;-65
2022/04/15 00:18:04;;;;;;;60.00;41.92;;;;;;;16.71;64.63;95767.41;5073381;28;20063;-66
2022/04/15 00:20:29;;;;;;;77.50;50.42;;;;;;;17.10;65.71;95793.03;5073122;28;20048;-65
2022/04/15 00:22:55;;;;;;;120.15;66.93;;;;;;;17.11;65.49;95731.97;5073277;28;20043;-66
2022/04/15 00:25:21;;;;;;;128.35;71.65;;;;;;;17.88;65.57;95797.66;5072101;28;20051;-66
2022/04/15 00:27:46;;;;;;;84.22;53.97;;;;;;;17.56;65.65;95737.38;5073462;28;20024;-65
2022/04/15 00:30:12;;;;;;;93.00;58.33;;;;;;;16.58;64.35;95687.81;5072988;28;20024;-65
2022/04/15 00:32:40;;;;;;;86.70;55.38;;;;;;;17.34;63.99;95819.22;5073045;28;20028;-65
2022/04/15 00:35:05;;;;;;;103.43;64.25;;;;;;;16.65;64.67;95704.22;5073149;28;20028;-65
2022/04/15 00:37:31;;;;;;;106.53;63.53;;;;;;;15.92;68.21;95722.53;5073296;28;20027;-65
2022/04/15 00:39:57;;;;;;;101.55;62.50;;;;;;;15.53;70.71;95743.97;5072897;28;20471;-65
2022/04/15 00:42:23;;;;;;;126.78;72.85;;;;;;;15.67;72.78;95818.09;5072373;28;20032;-66
2022/04/15 00:44:56;;;;;;;137.52;76.95;;;;;;;15.11;74.29;95750.22;5072768;28;20036;-65
2022/04/15 00:47:57;;;;;;;179.73;91.50;;;;;;;15.74;71.31;95765.53;5072915;28;20029;-65
2022/04/15 00:50:24;;;;;;;249.27;109.28;;;;;;;16.28;69.91;95759.63;5072420;28;20031;-65
2022/04/15 00:52:53;;;;;;;243.68;110.97;;;;;;;16.36;70.09;95723.84;5072740;28;20476;-65
2022/04/15 00:55:21;;;;;;;248.63;109.90;;;;;;;17.01;69.50;95716.28;5071227;28;20024;-65
2022/04/15 00:57:51;;;;;;;254.45;113.55;;;;;;;17.39;69.41;95759.06;5072796;28;20051;-66
2022/04/15 01:00:18;;;;;;;238.77;107.55;;;;;;;17.33;68.48;95730.81;5072230;28;20058;-65
2022/04/15 01:02:44;;;;;;;252.55;111.35;;;;;;;17.40;68.79;95728.34;5071221;28;20024;-65
2022/04/15 01:05:11;;;;;;;306.85;127.80;;;;;;;17.60;69.31;95748.22;5072525;28;20029;-65
2022/04/15 01:07:41;;;;;;;288.10;122.47;;;;;;;17.55;67.88;95761.91;5072489;28;20024;-64
2022/04/15 01:10:12;;;;;;;315.00;129.07;;;;;;;17.96;69.07;95787.88;5072200;28;20496;-65
2022/04/15 01:12:39;;;;;;;293.60;121.38;;;;;;;17.71;69.01;95732.44;5072333;28;20476;-65
2022/04/15 01:15:08;;;;;;;315.13;124.10;;;;;;;17.62;69.01;95711.81;5072442;28;20048;-65
2022/04/15 01:17:36;;;;;;;288.80;120.07;;;;;;;17.79;68.82;95728.91;5072421;28;20028;-65
2022/04/15 01:20:10;;;;;;;297.90;120.30;;;;;;;17.87;68.93;95744.16;5072023;28;20103;-65
2022/04/15 01:22:41;;;;;;;225.43;107.90;;;;;;;17.94;69.19;95741.69;5072098;28;20033;-65
2022/04/15 01:25:08;;;;;;;223.77;103.57;;;;;;;17.73;67.96;95757.16;5072252;28;20029;-66
2022/04/15 01:27:36;;;;;;;248.48;105.70;;;;;;;17.22;67.97;95735.81;5072214;28;20270;-65
2022/04/15 01:30:03;;;;;;;225.32;104.07;;;;;;;17.08;68.71;95721.88;5071820;28;20017;-66
2022/04/15 01:32:29;;;;;;;312.05;125.93;;;;;;;17.19;69.39;95747.22;5071617;28;20485;-65
2022/04/15 01:34:54;;;;;;;213.88;102.95;;;;;;;17.20;69.30;95715.75;5071944;28;20115;-65
2022/04/15 01:37:22;;;;;;;288.90;118.60;;;;;;;17.49;68.94;95747.09;5071917;28;20059;-65
2022/04/15 01:39:47;;;;;;;259.02;114.30;;;;;;;17.60;68.87;95757.09;5071949;28;20025;-65
2022/04/15 01:42:14;;;;;;;309.67;124.45;;;;;;;17.98;69.01;95785.66;5070161;28;20062;-65
2022/04/15 01:44:40;;;;;;;333.35;129.10;;;;;;;17.68;69.16;95707.00;5071298;28;20085;-65
2022/04/15 01:47:07;;;;;;;364.33;131.10;;;;;;;17.71;68.88;95694.78;5071880;28;20032;-65
2022/04/15 01:49:32;;;;;;;310.48;119.05;;;;;;;17.71;69.10;95705.53;5071710;28;20020;-65
2022/04/15 01:51:58;;;;;;;189.82;95.07;;;;;;;18.04;68.90;95791.63;5071154;28;20078;-65
2022/04/15 01:54:23;;;;;;;222.13;99.18;;;;;;;17.60;67.82;95781.28;5069877;28;20382;-65
2022/04/15 01:56:49;;;;;;;229.57;102.72;;;;;;;17.39;68.56;95737.53;5071471;28;20027;-65
2022/04/15 01:59:14;;;;;;;179.55;85.80;;;;;;;17.31;69.12;95723.09;5071717;28;20039;-65
2022/04/15 02:01:40;;;;;;;248.20;105.00;;;;;;;17.21;68.80;95695.84;5071037;28;20032;-65
2022/04/15 02:04:05;;;;;;;260.85;105.57;;;;;;;17.45;69.09;95724.66;5071359;28;20483;-65
2022/04/15 02:06:30;;;;;;;198.68;92.63;;;;;;;17.47;68.86;95714.38;5071660;28;20481;-65
2022/04/15 02:08:56;;;;;;;227.50;95.50;;;;;;;17.45;68.76;95703.16;5071350;28;20652;-64
2022/04/15 02:11:21;;;;;;;170.85;83.22;;;;;;;17.68;68.75;95734.69;5071010;28;20107;-65
2022/04/15 02:13:47;;;;;;;241.73;99.10;;;;;;;17.90;68.80;95759.63;5071294;28;20048;-65
2022/04/15 02:16:13;;;;;;;165.75;82.60;;;;;;;17.29;68.19;95692.25;5071428;28;20024;-65
2022/04/15 02:18:38;;;;;;;219.50;91.78;;;;;;;17.68;68.11;95799.25;5071226;28;20028;-65
2022/04/15 02:21:03;;;;;;;138.18;71.88;;;;;;;17.08;68.39;95760.28;5070742;28;20480;-65
2022/04/15 02:23:29;;;;;;;160.65;77.85;;;;;;;17.14;68.96;95732.09;5071220;28;20028;-65
2022/04/15 02:25:54;;;;;;;186.45;84.30;;;;;;;17.34;69.09;95749.28;5071167;28;20027;-65
2022/04/15 02:28:20;;;;;;;145.38;71.22;;;;;;;17.05;67.82;95827.38;5071216;28;20049;-65
2022/04/15 02:30:47;;;;;;;139.25;68.05;;;;;;;15.97;70.22;95782.19;5070825;28;20488;-64
2022/04/15 02:33:14;;;;;;;139.63;69.50;;;;;;;16.21;70.06;95792.31;5070979;28;20083;-65
2022/04/15 02:35:39;;;;;;;136.48;69.72;;;;;;;15.20;72.68;95745.59;5071234;28;20492;-66
2022/04/15 02:38:04;;;;;;;113.82;61.22;;;;;;;15.83;72.07;95829.88;5071155;28;20028;-65
2022/04/15 02:40:30;;;;;;;115.45;59.72;;;;;;;14.90;74.03;95753.53;5070588;28;20033;-65
2022/04/15 02:42:55;;;;;;;140.70;70.70;;;;;;;15.56;72.83;95778.19;5070556;28;20036;-65
2022/04/15 02:45:24;;;;;;;120.07;65.00;;;;;;;16.27;70.92;95825.91;5069576;28;20039;-65
2022/04/15 02:47:49;;;;;;;146.57;70.45;;;;;;;16.23;70.91;95757.13;5070592;28;20112;-64
2022/04/15 02:50:15;;;;;;;131.55;67.22;;;;;;;16.43;69.92;95834.22;5070650;28;20544;-64
2022/04/15 02:52:41;;;;;;;132.90;67.78;;;;;;;15.43;71.31;95746.19;5069575;28;20032;-65
2022/04/15 02:55:06;;;;;;;129.60;67.18;;;;;;;16.00;72.03;95856.66;5070883;28;20036;-65
2022/04/15 02:57:32;;;;;;;126.38;66.65;;;;;;;15.66;71.55;95752.13;5070994;28;20043;-64
2022/04/15 02:59:58;;;;;;;166.95;75.32;;;;;;;16.28;71.70;95811.41;5070810;28;20584;-65
2022/04/15 03:02:25;;;;;;;137.73;71.70;;;;;;;15.80;71.70;95809.06;5070287;28;20031;-64
2022/04/15 03:04:50;;;;;;;139.43;70.30;;;;;;;15.31;75.14;95857.53;5071044;28;20040;-65
2022/04/15 03:07:15;;;;;;;147.48;71.90;;;;;;;15.40;74.65;95795.06;5074190;28;20040;-65
2022/04/15 03:09:41;;;;;;;160.27;77.00;;;;;;;14.86;74.66;95749.13;5074826;28;20051;-65
2022/04/15 03:12:07;;;;;;;148.50;72.97;;;;;;;15.14;74.76;95744.19;5074350;28;20040;-66
2022/04/15 03:14:32;;;;;;;176.40;82.45;;;;;;;15.26;75.09;95806.78;5074740;28;20059;-65
2022/04/15 03:16:58;;;;;;;171.43;81.50;;;;;;;15.36;74.19;95770.03;5074502;28;20055;-65
2022/04/15 03:19:23;;;;;;;181.30;81.50;;;;;;;16.15;73.67;95860.72;5073546;28;20020;-65
2022/04/15 03:21:48;;;;;;;183.95;83.35;;;;;;;15.51;73.19;95762.28;5074140;28;20035;-65
2022/04/15 03:24:14;;;;;;;170.13;83.03;;;;;;;15.79;71.92;95749.25;5074515;28;20020;-64
2022/04/15 03:26:39;;;;;;;204.05;92.32;;;;;;;16.62;71.29;95845.31;5074364;28;20016;-65
2022/04/15 03:29:04;;;;;;;194.60;90.05;;;;;;;15.71;71.33;95739.34;5074490;28;20027;-65
2022/04/15 03:31:30;;;;;;;212.23;92.72;;;;;;;15.75;72.52;95752.91;5073512;28;20039;-64
2022/04/15 03:33:55;;;;;;;193.50;90.28;;;;;;;15.91;71.49;95804.91;5074323;28;20028;-65
2022/04/15 03:36:20;;;;;;;186.07;85.80;;;;;;;15.45;72.56;95755.47;5074354;28;20036;-65
2022/04/15 03:38:46;;;;;;;197.95;87.93;;;;;;;15.71;72.05;95765.38;5074230;28;20021;-65
2022/04/15 03:41:11;;;;;;;203.15;90.30;;;;;;;16.36;72.10;95837.41;5073844;28;20446;-65
2022/04/15 03:43:37;;;;;;;218.35;94.60;;;;;;;15.83;71.68;95765.50;5073664;28;20025;-65
2022/04/15 03:46:03;;;;;;;202.65;91.28;;;;;;;16.62;70.86;95785.44;5074248;28;20389;-65
2022/04/15 03:48:28;;;;;;;238.13;97.03;;;;;;;16.83;70.89;95755.94;5074061;28;20017;-65
2022/04/15 03:50:53;;;;;;;226.73;97.20;;;;;;;16.79;69.44;95755.03;5073595;28;20059;-65
2022/04/15 03:53:20;;;;;;;219.73;97.47;;;;;;;16.73;70.68;95855.72;5074018;28;20039;-65
2022/04/15 03:55:46;;;;;;;225.02;97.47;;;;;;;16.56;70.56;95827.81;5073904;28;20170;-65
2022/04/15 03:58:13;;;;;;;196.93;90.78;;;;;;;16.00;72.49;95835.19;5073872;28;20107;-65
2022/04/15 04:00:39;;;;;;;204.75;91.88;;;;;;;16.24;71.50;95818.53;5073526;28;20400;-64
2022/04/15 04:03:04;;;;;;;231.52;98.72;;;;;;;16.56;71.54;95849.31;5073895;28;20031;-65
2022/04/15 04:05:30;;;;;;;211.30;94.60;;;;;;;15.60;72.39;95784.47;5073624;28;20025;-65
2022/04/15 04:07:55;;;;;;;209.88;94.60;;;;;;;16.09;72.75;95859.31;5073545;28;20056;-64
2022/04/15 04:10:21;;;;;;;227.75;98.97;;;;;;;16.22;72.65;95842.19;5073270;28;20021;-65
2022/04/15 04:12:48;;;;;;;217.88;96.63;;;;;;;15.88;72.08;95789.47;5073661;28;20380;-65
2022/04/15 04:15:14;;;;;;;225.90;98.90;;;;;;;15.89;71.46;95792.94;5073591;28;20032;-64
2022/04/15 04:17:40;;;;;;;234.05;99.25;;;;;;;15.80;73.47;95849.28;5067204;22;20060;-66
2022/04/15 04:20:06;;;;;;;231.85;101.38;;;;;;;15.81;74.00;95858.91;5033058;28;20552;-65
2022/04/15 04:22:34;;;;;;;238.57;103.32;;;;;;;15.80;73.55;95852.75;5033162;28;20037;-65
2022/04/15 04:25:00;;;;;;;236.80;104.82;;;;;;;15.90;73.28;95856.22;5033304;28;20061;-65
2022/04/15 04:27:25;;;;;;;245.02;102.15;;;;;;;16.19;72.42;95853.59;5032324;28;20060;-66
2022/04/15 04:29:51;;;;;;;243.05;104.35;;;;;;;16.22;72.82;95842.19;5033217;28;20063;-66
2022/04/15 04:32:18;;;;;;;232.93;102.95;;;;;;;15.99;73.25;95830.94;5031669;28;20451;-66
2022/04/15 04:34:44;;;;;;;250.65;105.80;;;;;;;16.17;72.40;95860.38;5033403;28;20053;-65
2022/04/15 04:37:09;;;;;;;250.57;107.32;;;;;;;15.62;72.17;95738.56;5033249;28;20057;-65
2022/04/15 04:39:35;;;;;;;239.05;104.25;;;;;;;16.33;71.78;95813.13;5031992;28;20060;-65
2022/04/15 04:42:02;;;;;;;266.70;112.18;;;;;;;16.90;70.08;95866.38;5031431;28;20034;-65
2022/04/15 04:44:29;;;;;;;284.60;112.25;;;;;;;16.41;70.33;95795.38;5032910;28;20060;-65
2022/04/15 04:46:55;;;;;;;287.65;114.88;;;;;;;16.40;72.24;95856.34;5031886;28;20025;-65
2022/04/15 04:49:21;;;;;;;306.02;118.85;;;;;;;16.74;70.68;95825.06;5032964;28;20057;-65
2022/04/15 04:51:47;;;;;;;287.25;115.28;;;;;;;17.07;70.13;95884.28;5031188;28;20080;-65
2022/04/15 04:54:12;;;;;;;299.83;117.63;;;;;;;16.67;70.10;95808.63;5032889;28;20057;-65
2022/04/15 04:56:38;;;;;;;259.65;109.10;;;;;;;16.48;70.19;95855.53;5031557;28;20056;-65
2022/04/15 04:59:03;;;;;;;273.20;115.03;;;;;;;16.34;70.80;95812.78;5032780;28;20068;-65
2022/04/15 05:01:29;;;;;;;292.92;114.82;;;;;;;16.92;70.31;95855.28;5032442;28;20083;-65
2022/04/15 05:03:54;;;;;;;268.90;112.45;;;;;;;16.30;70.61;95843.28;5032667;28;20057;-65
2022/04/15 05:06:19;;;;;;;271.52;110.38;;;;;;;16.57;70.55;95858.16;5032562;28;20084;-65
2022/04/15 05:08:44;;;;;;;270.13;112.05;;;;;;;16.08;69.91;95807.53;5032659;28;20467;-64
2022/04/15 05:11:10;;;;;;;253.48;109.80;;;;;;;16.73;70.25;95904.06;5032206;28;20382;-66
2022/04/15 05:13:35;;;;;;;256.63;108.43;;;;;;;16.81;70.36;95905.94;5032599;28;20033;-64
2022/04/15 05:16:01;;;;;;;250.95;109.00;;;;;;;16.35;70.84;95851.16;5031031;28;20028;-65
2022/04/15 05:18:26;;;;;;;214.05;100.68;;;;;;;16.31;70.48;95847.53;5032507;28;20034;-64
2022/04/15 05:20:51;;;;;;;234.63;106.20;;;;;;;16.78;69.30;95859.00;5032046;28;20079;-64
2022/04/15 05:23:17;;;;;;;194.85;95.40;;;;;;;16.63;69.62;95892.56;5032599;28;20025;-65
2022/04/15 05:25:42;;;;;;;202.10;98.80;;;;;;;17.04;69.42;95901.81;5031261;28;20539;-64
2022/04/15 05:28:07;;;;;;;186.82;94.00;;;;;;;16.73;69.84;95856.50;5031654;28;20038;-65
2022/04/15 05:30:33;;;;;;;168.23;88.30;;;;;;;16.76;69.98;95900.75;5031792;28;20029;-64
2022/04/15 05:32:58;;;;;;;178.80;91.25;;;;;;;16.35;70.02;95872.63;5032022;28;20124;-64
2022/04/15 05:35:24;;;;;;;157.75;84.18;;;;;;;16.13;70.37;95870.19;5032150;28;20029;-64
2022/04/15 05:37:49;;;;;;;152.02;83.65;;;;;;;16.50;69.86;95888.19;5032136;28;20470;-64
2022/04/15 05:40:14;;;;;;;144.82;81.63;;;;;;;16.88;68.14;95874.75;5031618;28;20025;-64
2022/04/15 05:42:40;;;;;;;150.88;85.15;;;;;;;17.57;68.18;95878.81;5031776;28;20032;-65
2022/04/15 05:45:06;;;;;;;139.90;77.70;;;;;;;17.28;67.78;95874.31;5031969;28;20029;-65
2022/04/15 05:47:31;;;;;;;109.03;68.25;;;;;;;17.47;67.90;95913.41;5032178;28;20034;-64
2022/04/15 05:49:57;;;;;;;113.90;71.30;;;;;;;17.44;68.23;95914.06;5032072;28;20029;-64
2022/04/15 05:52:22;;;;;;;112.22;69.10;;;;;;;17.01;67.29;95872.94;5031500;28;20028;-64
2022/04/15 05:54:47;;;;;;;121.00;71.20;;;;;;;17.36;66.54;95899.56;5031900;28;20029;-64
2022/04/15 05:57:13;;;;;;;114.47;70.07;;;;;;;16.80;67.91;95834.50;5030678;28;20108;-65
2022/04/15 05:59:38;;;;;;;112.70;69.35;;;;;;;17.49;67.45;95887.75;5031678;28;20071;-64
2022/04/15 06:02:04;;;;;;;113.85;71.13;;;;;;;17.65;67.61;95929.06;5031465;28;20390;-64
2022/04/15 06:04:29;;;;;;;77.75;55.15;;;;;;;17.46;66.84;95930.66;5031761;28;20029;-64
2022/04/15 06:06:54;;;;;;;57.60;48.03;;;;;;;17.79;66.22;95923.44;5030444;28;20026;-65
2022/04/15 06:09:20;;;;;;;62.75;50.13;;;;;;;17.51;66.65;95928.56;5030396;28;20025;-64
2022/04/15 06:11:45;;;;;;;61.00;47.95;;;;;;;16.59;67.91;95856.72;5031328;28;20025;-64
2022/04/15 06:14:11;;;;;;;55.00;46.35;;;;;;;16.87;67.30;95835.56;5031684;28;20494;-64
2022/04/15 06:16:42;;;;;;;54.40;45.05;;;;;;;18.02;66.86;95950.00;5030060;28;20026;-65
2022/04/15 06:19:07;;;;;;;55.83;44.13;;;;;;;17.88;65.41;95912.59;5031580;28;20025;-64
2022/04/15 06:21:33;;;;;;;53.25;42.10;;;;;;;17.16;66.41;95909.19;5031064;28;20109;-64
2022/04/15 06:23:58;;;;;;;48.95;40.00;;;;;;;16.55;66.69;95888.03;5030070;28;20152;-65
2022/04/15 06:26:24;;;;;;;45.45;38.40;;;;;;;16.53;67.76;95890.25;5031482;28;20025;-65
2022/04/15 06:28:49;;;;;;;40.47;35.85;;;;;;;17.27;67.75;95933.78;5031628;28;20033;-65
2022/04/15 06:31:15;;;;;;;38.28;34.35;;;;;;;17.27;66.44;95921.13;5030926;28;20021;-65
2022/04/15 06:33:41;;;;;;;38.00;34.08;;;;;;;17.68;66.45;95949.16;5031303;28;20108;-64
2022/04/15 06:36:06;;;;;;;34.97;30.77;;;;;;;16.14;69.52;95928.91;5031081;28;20030;-63
2022/04/15 06:38:32;;;;;;;34.55;31.05;;;;;;;16.88;66.89;95906.19;5031070;28;20458;-64
2022/04/15 06:40:57;;;;;;;35.72;32.03;;;;;;;17.86;65.79;95949.81;5028851;28;20065;-64
2022/04/15 06:43:22;;;;;;;33.25;29.75;;;;;;;17.76;64.71;95907.16;5030724;28;20040;-63
2022/04/15 06:45:48;;;;;;;34.33;28.52;;;;;;;15.98;67.93;95885.72;5031106;28;20041;-64
2022/04/15 06:48:13;;;;;;;32.00;28.77;;;;;;;15.93;68.80;95851.00;5031120;28;20070;-64
2022/04/15 06:50:39;;;;;;;32.67;29.27;;;;;;;16.55;67.06;95925.63;5029235;28;20018;-64
2022/04/15 06:53:04;;;;;;;30.40;27.60;;;;;;;17.12;65.92;95927.09;5030852;28;20469;-63
2022/04/15 06:55:30;;;;;;;31.60;28.52;;;;;;;16.45;67.23;95947.47;5031044;28;20116;-64
2022/04/15 06:57:55;;;;;;;31.63;28.10;;;;;;;16.84;66.45;95937.53;5030832;28;20030;-74
2022/04/15 07:00:21;;;;;;;31.05;27.92;;;;;;;16.61;67.21;95932.38;5030485;28;20075;-64
2022/04/15 07:02:46;;;;;;;30.77;27.60;;;;;;;16.96;65.68;95924.19;5031148;28;20053;-66
2022/04/15 07:05:12;;;;;;;31.27;28.00;;;;;;;16.58;66.96;95967.97;5030690;28;20479;-67
2022/04/15 07:07:38;;;;;;;32.22;28.85;;;;;;;16.81;66.75;95971.19;5030848;28;20026;-67
2022/04/15 07:10:05;;;;;;;32.30;29.02;;;;;;;17.02;65.21;95930.94;5030684;28;20021;-67
2022/04/15 07:12:31;;;;;;;32.58;29.35;;;;;;;17.24;64.16;95948.66;5030843;28;20049;-66
2022/04/15 07:14:57;;;;;;;31.15;28.10;;;;;;;17.35;63.08;95892.59;5029936;28;20068;-65
2022/04/15 07:17:23;;;;;;;30.42;27.63;;;;;;;18.06;63.26;95967.81;5030945;28;20074;-68
2022/04/15 07:19:49;;;;;;;29.45;26.67;;;;;;;18.16;62.65;95967.41;5030917;28;20026;-74
2022/04/15 07:22:18;;;;;;;28.35;25.75;;;;;;;17.68;63.38;95976.84;5030847;28;20079;-67
2022/04/15 07:24:44;;;;;;;29.55;26.80;;;;;;;17.25;64.73;95973.66;5029516;28;20052;-66
2022/04/15 07:27:09;;;;;;;26.70;24.13;;;;;;;17.02;65.53;95971.25;5030621;28;20087;-66
2022/04/15 07:29:35;;;;;;;28.35;25.38;;;;;;;17.05;65.63;95965.25;5028889;28;20029;-65
2022/04/15 07:32:00;;;;;;;28.35;25.50;;;;;;;17.61;62.58;95901.25;5030253;28;20032;-65
2022/04/15 07:34:26;;;;;;;27.20;24.67;;;;;;;18.42;60.77;95929.44;5031020;28;20037;-64
2022/04/15 07:36:57;;;;;;;29.05;26.63;;;;;;;17.78;62.86;95974.91;5030805;28;20032;-65
2022/04/15 07:39:23;;;;;;;27.65;25.23;;;;;;;17.23;62.30;95917.53;5030624;28;20373;-65
2022/04/15 07:41:50;;;;;;;28.30;25.77;;;;;;;17.28;63.75;95983.75;5030327;28;20102;-64
2022/04/15 07:44:16;;;;;;;28.27;25.48;;;;;;;17.67;62.33;95916.06;5028419;28;20025;-66
2022/04/15 07:46:43;;;;;;;27.10;24.52;;;;;;;18.83;58.12;95970.81;5029428;28;20390;-66
2022/04/15 07:49:09;;;;;;;27.38;24.85;;;;;;;17.29;62.25;95964.59;5029384;28;20029;-64
2022/04/15 07:51:35;;;;;;;26.90;24.50;;;;;;;18.58;59.43;95926.88;5030571;28;20041;-65
2022/04/15 07:54:01;;;;;;;27.15;24.65;;;;;;;18.99;57.54;95995.22;5034215;28;20018;-64
2022/04/15 07:56:27;;;;;;;25.52;23.33;;;;;;;18.37;58.82;95937.72;5034403;28;20029;-65
2022/04/15 07:58:52;;;;;;;26.42;24.25;;;;;;;18.81;58.23;95934.56;5032861;28;20056;-66
2022/04/15 08:01:19;;;;;;;27.80;25.30;;;;;;;18.96;58.35;95979.72;5031339;28;20033;-67
2022/04/15 08:03:45;;;;;;;26.20;24.00;;;;;;;19.98;56.96;95983.94;5032566;28;20029;-63
2022/04/15 08:06:10;;;;;;;25.38;23.27;;;;;;;18.76;57.21;95948.25;5032803;28;20029;-66
2022/04/15 08:08:36;;;;;;;26.92;24.45;;;;;;;18.33;56.78;95871.41;5033944;28;20083;-64
2022/04/15 08:11:02;;;;;;;26.02;23.77;;;;;;;19.08;55.38;95866.44;5033406;28;20048;-66
2022/04/15 08:13:27;;;;;;;27.92;25.42;;;;;;;17.72;54.12;95696.38;5033798;28;20079;-66
2022/04/15 08:15:53;;;;;;;25.88;23.50;;;;;;;20.22;54.11;95939.06;5033143;28;20040;-70
2022/04/15 08:18:22;;;;;;;25.63;23.23;;;;;;;19.60;53.10;95992.47;5033741;28;20030;-68
2022/04/15 08:20:48;;;;;;;26.15;23.67;;;;;;;19.51;53.78;95999.13;5033460;28;20030;-64
2022/04/15 08:23:14;;;;;;;26.42;24.05;;;;;;;19.85;54.92;95896.00;5033727;28;20036;-67
2022/04/15 08:25:39;;;;;;;26.02;23.85;;;;;;;20.47;53.70;95961.31;5033631;28;20021;-66
2022/04/15 08:28:05;;;;;;;26.08;23.67;;;;;;;20.29;51.89;95976.28;5033941;28;20021;-64
2022/04/15 08:30:34;;;;;;;26.88;24.38;;;;;;;20.73;51.19;96002.19;5032148;28;20037;-68
2022/04/15 08:33:02;;;;;;;28.52;25.80;;;;;;;20.07;53.49;95980.31;5032228;28;20401;-68
2022/04/15 08:35:28;;;;;;;24.27;21.98;;;;;;;18.72;54.10;95912.31;5033432;28;20026;-68
2022/04/15 08:37:53;;;;;;;23.77;21.45;;;;;;;19.78;51.51;95976.03;5033403;28;20029;-66
2022/04/15 08:40:19;;;;;;;24.42;22.48;;;;;;;19.21;54.44;95931.94;5032788;28;20498;-63
2022/04/15 08:42:45;;;;;;;25.95;23.75;;;;;;;19.41;51.97;95843.91;5033156;28;20048;-64
2022/04/15 08:45:13;;;;;;;22.85;20.77;;;;;;;19.17;52.50;95918.34;5032293;28;20033;-66
2022/04/15 08:47:41;;;;;;;23.83;21.48;;;;;;;18.15;54.90;95852.75;5031729;28;20067;-65
2022/04/15 08:50:10;;;;;;;23.67;21.77;;;;;;;18.32;55.66;95985.63;5032979;28;20044;-67
2022/04/15 08:52:36;;;;;;;21.20;19.40;;;;;;;19.46;53.74;96008.22;5032949;28;20444;-67
2022/04/15 08:55:03;;;;;;;21.20;19.35;;;;;;;20.22;51.67;96007.38;5033155;28;20649;-64
2022/04/15 08:57:28;;;;;;;23.00;20.50;;;;;;;19.02;50.41;95792.31;5033086;28;20505;-67
2022/04/15 08:59:54;;;;;;;20.50;18.80;;;;;;;20.45;50.52;95918.41;5031046;28;20025;-70
2022/04/15 09:02:31;;;;;;;20.98;19.17;;;;;;;19.09;51.41;95878.00;5032504;28;20021;-68
2022/04/15 09:04:57;;;;;;;20.27;18.67;;;;;;;20.42;49.01;95931.81;5032653;28;20179;-67
2022/04/15 09:07:26;;;;;;;20.17;18.08;;;;;;;19.83;47.62;95778.72;5033028;28;20075;-67
2022/04/15 09:09:56;;;;;;;19.58;17.88;;;;;;;20.07;47.66;95904.69;5032709;28;20033;-68
2022/04/15 09:12:28;;;;;;;19.50;17.95;;;;;;;19.63;48.42;95853.38;5032173;28;20739;-67
2022/04/15 09:14:58;;;;;;;19.17;17.73;;;;;;;20.48;48.03;95825.09;5032172;28;20026;-67
2022/04/15 09:17:26;;;;;;;17.90;16.42;;;;;;;20.98;47.52;96016.28;5032365;28;20494;-67
2022/04/15 09:19:52;;;;;;;17.73;16.33;;;;;;;20.06;47.08;95776.19;5033286;28;20021;-66
2022/04/15 09:22:18;;;;;;;19.10;17.45;;;;;;;22.09;45.47;96023.44;5032483;28;20522;-66
2022/04/15 09:24:46;;;;;;;17.45;16.00;;;;;;;21.70;44.95;95974.66;5032885;28;20079;-66
2022/04/15 09:27:11;;;;;;;15.98;14.73;;;;;;;20.44;45.16;95886.34;5033106;28;20071;-66
2022/04/15 09:29:39;;;;;;;16.70;15.43;;;;;;;19.22;48.70;95874.97;5032076;28;20026;-67
2022/04/15 09:32:09;;;;;;;18.52;16.80;;;;;;;18.53;52.15;95942.47;5030768;28;20108;-68
2022/04/15 09:34:52;;;;;;;19.00;17.45;;;;;;;19.77;51.34;96015.75;5032422;28;20021;-67
2022/04/15 09:37:19;;;;;;;20.15;18.63;;;;;;;20.34;49.54;95971.41;5031383;28;20569;-66
2022/04/15 09:40:07;;;;;;;18.95;17.25;;;;;;;20.01;49.30;96014.88;5031576;28;20025;-67
2022/04/15 09:42:36;;;;;;;17.25;15.85;;;;;;;17.86;53.38;95960.56;5030992;28;20078;-67
2022/04/15 09:45:11;;;;;;;13.52;12.23;;;;;;;18.26;51.19;96011.22;5031383;28;20422;-67
2022/04/15 09:47:36;;;;;;;14.45;13.18;;;;;;;17.89;50.15;95958.00;5031093;28;20715;-66
2022/04/15 09:50:03;;;;;;;11.02;10.02;;;;;;;17.78;47.87;95845.75;5030908;28;20025;-66
2022/04/15 09:52:28;;;;;;;11.13;10.18;;;;;;;19.16;44.66;95988.81;5030818;28;20033;-67
2022/04/15 09:54:56;;;;;;;9.75;8.95;;;;;;;20.24;44.74;95971.91;5031001;28;20043;-67
2022/04/15 09:57:23;;;;;;;11.85;9.15;;;;;;;20.79;42.87;96015.44;5031156;28;20100;-63
2022/04/15 09:59:52;;;;;;;10.93;10.02;;;;;;;20.53;43.07;95895.09;5030460;28;20034;-67
2022/04/15 10:02:22;;;;;;;13.20;12.00;;;;;;;20.40;44.65;95974.63;5025587;28;20141;-68
2022/04/15 10:04:47;;;;;;;11.60;10.70;;;;;;;20.15;42.56;95766.78;5030321;28;20026;-68
2022/04/15 10:07:14;;;;;;;11.13;10.18;;;;;;;21.37;42.42;95828.97;5031247;28;20032;-67
2022/04/15 10:09:42;;;;;;;13.52;12.43;;;;;;;20.68;40.95;95980.03;5030962;28;20086;-66
2022/04/15 10:12:08;;;;;;;15.70;14.30;;;;;;;22.31;39.61;95993.72;5030718;28;20031;-68
2022/04/15 10:14:33;;;;;;;12.80;11.70;;;;;;;22.48;38.09;95964.59;5030533;28;20379;-68
2022/04/15 10:16:59;;;;;;;13.13;12.15;;;;;;;22.80;36.56;95965.13;5030126;28;20493;-69
2022/04/15 10:19:26;;;;;;;13.30;12.15;;;;;;;20.95;41.35;95873.66;5030908;28;20029;-67
2022/04/15 10:21:52;;;;;;;12.65;11.65;;;;;;;23.23;39.60;95985.59;5043094;23;20053;-65
2022/04/15 10:24:18;;;;;;;12.40;11.40;;;;;;;23.05;37.80;95976.44;5029472;28;20021;-64
2022/04/15 10:26:46;;;;;;;12.68;11.60;;;;;;;22.36;36.76;95978.31;5031039;28;20037;-64
2022/04/15 10:29:12;;;;;;;11.73;10.90;;;;;;;22.12;36.62;95982.91;5029778;28;20430;-64
2022/04/15 10:31:43;;;;;;;11.88;10.88;;;;;;;22.00;35.81;95985.72;5029899;28;20474;-64
2022/04/15 10:34:11;;;;;;;10.65;9.75;;;;;;;21.12;37.89;95983.41;5031641;28;20390;-65
2022/04/15 10:36:37;;;;;;;11.88;10.88;;;;;;;22.01;37.10;95985.38;5031574;28;20026;-64
2022/04/15 10:39:06;;;;;;;11.70;10.70;;;;;;;21.02;38.67;95987.41;5031735;28;20048;-63
2022/04/15 10:41:44;;;;;;;10.10;9.25;;;;;;;20.28;39.66;95982.81;5030432;28;20493;-63
2022/04/15 10:44:14;;;;;;;10.75;9.85;;;;;;;21.70;38.03;95961.91;5030388;28;20071;-63
2022/04/15 10:46:40;;;;;;;9.98;9.20;;;;;;;22.18;37.35;95961.72;5029378;28;20029;-64
2022/04/15 10:49:23;;;;;;;9.85;9.00;;;;;;;22.31;36.40;95969.31;5029013;28;20029;-64
2022/04/15 10:52:15;;;;;;;9.20;8.43;;;;;;;20.75;38.41;95974.78;5028863;28;20478;-65
2022/04/15 10:54:51;;;;;;;10.02;9.23;;;;;;;20.79;37.24;95964.06;5030429;28;20021;-64
2022/04/15 10:57:18;;;;;;;9.45;8.75;;;;;;;21.68;36.11;95977.72;5030305;28;20034;-66
2022/04/15 11:02:42;;;;;;;9.50;8.63;;;;;;;22.11;34.96;95975.94;5030327;28;20049;-65
2022/04/15 11:05:11;;;;;;;8.63;7.93;;;;;;;23.09;34.02;95974.56;5031413;28;20060;-65
2022/04/15 11:07:43;;;;;;;9.35;8.52;;;;;;;23.23;33.45;95980.19;5031297;28;20030;-66
2022/04/15 11:10:18;;;;;;;9.35;8.52;;;;;;;21.92;34.84;95973.19;5030055;28;20022;-66
2022/04/15 11:12:44;;;;;;;8.10;7.43;;;;;;;22.04;35.42;95956.78;5030016;28;20029;-65